Startpagina
METAR-TAF:

METAR-TAF

Vliegvelden :

Radom-Sadków

Radom, Polen

breedte: 51-23-21N, lengte: 21-12-49E, hoogte: 186 m

Actueel weer

Dit bericht is 33 minuten geleden gemaakt, om 18:00 UTC
Wind 8 kt uit het zuidoosten
Temperatuur 9°C
Vochtigheid 100%
Druk 1024 hPa
Zicht: 7000 m

METAR: EPRA 121800Z 14008KT 7000 NSC 09/09 Q1024

Tijdstip: 19:33 (18:33 UTC)

Verwachting

Dit bericht is 1 uur en het 3 minuten geleden gemaakt, om 17:30 UTC
Verwachting geldig van 12 om 18 UTC tot 13 om 03 UTC
Wind 6 kt uit het zuidoosten
Zicht: 6000 m
Wijzigt naar
van 12 om 20 UTC tot 12 om 22 UTC
Zicht: 3000 m
nevel

TAF: EPRA 121730Z 1218/1303 14006KT 6000 NSC BECMG 1220/1222 3000 BR

Waarnemingen en weersverwachtingen van meer dan 4000 vliegvelden (METAR en TAF).

De beschikbare stations zijn de gele en rode punten op de kaart.

Ga met uw muis naar het station om de naam te zien.

Klik dan om waarnemingen en weersverwachtingen te zien.

kaart wijzigen: klik op de groene knoppen met een zwart kruis om in te zoomen, op de groene knop met een streepje om uit te zoomen of op de groene pijlen voor aangrenzende kaarten.


METAR-TAF: